sensor_id;sensor_type;location;lat;lon;timestamp;P1;durP1;ratioP1;P2;durP2;ratioP2
13891;SDS011;7016;48.172;8.058;2023-11-21T00:01:01;11.25;;;2.10;;
13891;SDS011;7016;48.172;8.058;2023-11-21T00:03:29;14.43;;;2.40;;
13891;SDS011;7016;48.172;8.058;2023-11-21T00:05:57;13.13;;;2.03;;
13891;SDS011;7016;48.172;8.058;2023-11-21T00:08:23;8.27;;;1.98;;
13891;SDS011;7016;48.172;8.058;2023-11-21T00:10:49;11.27;;;2.45;;
13891;SDS011;7016;48.172;8.058;2023-11-21T00:13:16;10.85;;;2.50;;
13891;SDS011;7016;48.172;8.058;2023-11-21T00:15:41;9.63;;;1.98;;
13891;SDS011;7016;48.172;8.058;2023-11-21T00:18:07;10.75;;;2.47;;
13891;SDS011;7016;48.172;8.058;2023-11-21T00:20:33;8.43;;;2.33;;
13891;SDS011;7016;48.172;8.058;2023-11-21T00:22:58;9.32;;;1.90;;
13891;SDS011;7016;48.172;8.058;2023-11-21T00:25:27;11.73;;;2.75;;
13891;SDS011;7016;48.172;8.058;2023-11-21T00:27:53;10.65;;;2.75;;
13891;SDS011;7016;48.172;8.058;2023-11-21T00:30:19;10.02;;;2.63;;
13891;SDS011;7016;48.172;8.058;2023-11-21T00:32:46;9.90;;;2.50;;
13891;SDS011;7016;48.172;8.058;2023-11-21T00:35:11;9.38;;;2.10;;
13891;SDS011;7016;48.172;8.058;2023-11-21T00:37:37;10.65;;;2.13;;
13891;SDS011;7016;48.172;8.058;2023-11-21T00:40:04;8.30;;;1.88;;
13891;SDS011;7016;48.172;8.058;2023-11-21T00:42:31;10.85;;;2.33;;
13891;SDS011;7016;48.172;8.058;2023-11-21T00:44:59;12.95;;;2.53;;
13891;SDS011;7016;48.172;8.058;2023-11-21T00:47:25;8.18;;;1.90;;
13891;SDS011;7016;48.172;8.058;2023-11-21T00:49:51;11.90;;;2.38;;
13891;SDS011;7016;48.172;8.058;2023-11-21T00:52:16;9.60;;;2.35;;
13891;SDS011;7016;48.172;8.058;2023-11-21T00:54:42;14.13;;;2.53;;
13891;SDS011;7016;48.172;8.058;2023-11-21T00:57:08;8.18;;;2.65;;
13891;SDS011;7016;48.172;8.058;2023-11-21T00:59:33;8.98;;;1.90;;
13891;SDS011;7016;48.172;8.058;2023-11-21T01:02:00;6.38;;;1.77;;
13891;SDS011;7016;48.172;8.058;2023-11-21T01:04:26;12.35;;;2.33;;
13891;SDS011;7016;48.172;8.058;2023-11-21T01:06:52;10.32;;;1.90;;
13891;SDS011;7016;48.172;8.058;2023-11-21T01:09:18;7.53;;;2.00;;
13891;SDS011;7016;48.172;8.058;2023-11-21T01:11:44;9.57;;;1.90;;
13891;SDS011;7016;48.172;8.058;2023-11-21T01:14:09;10.30;;;2.00;;
13891;SDS011;7016;48.172;8.058;2023-11-21T01:16:35;10.40;;;2.50;;
13891;SDS011;7016;48.172;8.058;2023-11-21T01:19:01;9.35;;;2.05;;
13891;SDS011;7016;48.172;8.058;2023-11-21T01:21:27;7.55;;;2.17;;
13891;SDS011;7016;48.172;8.058;2023-11-21T01:23:53;7.28;;;1.77;;
13891;SDS011;7016;48.172;8.058;2023-11-21T01:26:20;12.07;;;1.77;;
13891;SDS011;7016;48.172;8.058;2023-11-21T01:28:46;7.82;;;1.88;;
13891;SDS011;7016;48.172;8.058;2023-11-21T01:31:14;8.07;;;2.25;;
13891;SDS011;7016;48.172;8.058;2023-11-21T01:33:40;8.88;;;1.90;;
13891;SDS011;7016;48.172;8.058;2023-11-21T01:36:05;8.23;;;1.48;;
13891;SDS011;7016;48.172;8.058;2023-11-21T01:38:31;11.30;;;2.25;;
13891;SDS011;7016;48.172;8.058;2023-11-21T01:40:57;5.35;;;1.80;;
13891;SDS011;7016;48.172;8.058;2023-11-21T01:43:25;7.18;;;1.50;;
13891;SDS011;7016;48.172;8.058;2023-11-21T01:45:52;4.60;;;1.35;;
13891;SDS011;7016;48.172;8.058;2023-11-21T01:48:21;9.27;;;1.60;;
13891;SDS011;7016;48.172;8.058;2023-11-21T01:50:48;7.10;;;1.50;;
13891;SDS011;7016;48.172;8.058;2023-11-21T01:53:14;10.50;;;1.98;;
13891;SDS011;7016;48.172;8.058;2023-11-21T01:55:40;11.40;;;1.92;;
13891;SDS011;7016;48.172;8.058;2023-11-21T01:58:07;10.32;;;1.88;;
13891;SDS011;7016;48.172;8.058;2023-11-21T02:00:33;9.75;;;2.90;;
13891;SDS011;7016;48.172;8.058;2023-11-21T02:02:59;10.05;;;2.08;;
13891;SDS011;7016;48.172;8.058;2023-11-21T02:05:25;8.20;;;1.77;;
13891;SDS011;7016;48.172;8.058;2023-11-21T02:07:51;8.07;;;2.17;;
13891;SDS011;7016;48.172;8.058;2023-11-21T02:10:17;6.95;;;1.98;;
13891;SDS011;7016;48.172;8.058;2023-11-21T02:12:48;6.85;;;1.73;;
13891;SDS011;7016;48.172;8.058;2023-11-21T02:15:15;7.07;;;1.60;;
13891;SDS011;7016;48.172;8.058;2023-11-21T02:17:45;4.03;;;1.00;;
13891;SDS011;7016;48.172;8.058;2023-11-21T02:20:19;5.32;;;1.30;;
13891;SDS011;7016;48.172;8.058;2023-11-21T02:25:30;3.72;;;1.20;;
13891;SDS011;7016;48.172;8.058;2023-11-21T02:27:57;4.18;;;1.20;;
13891;SDS011;7016;48.172;8.058;2023-11-21T02:30:24;2.88;;;1.00;;
13891;SDS011;7016;48.172;8.058;2023-11-21T02:32:50;4.75;;;1.35;;
13891;SDS011;7016;48.172;8.058;2023-11-21T02:35:19;4.40;;;1.00;;
13891;SDS011;7016;48.172;8.058;2023-11-21T02:37:50;3.67;;;1.20;;
13891;SDS011;7016;48.172;8.058;2023-11-21T02:40:17;5.30;;;1.17;;
13891;SDS011;7016;48.172;8.058;2023-11-21T02:42:43;5.22;;;1.05;;
13891;SDS011;7016;48.172;8.058;2023-11-21T02:45:09;6.18;;;1.23;;
13891;SDS011;7016;48.172;8.058;2023-11-21T02:47:38;6.03;;;1.40;;
13891;SDS011;7016;48.172;8.058;2023-11-21T02:50:04;4.97;;;1.40;;
13891;SDS011;7016;48.172;8.058;2023-11-21T02:52:32;6.65;;;1.70;;
13891;SDS011;7016;48.172;8.058;2023-11-21T02:54:58;6.45;;;1.80;;
13891;SDS011;7016;48.172;8.058;2023-11-21T02:57:24;6.28;;;1.50;;
13891;SDS011;7016;48.172;8.058;2023-11-21T02:59:50;6.38;;;1.40;;
13891;SDS011;7016;48.172;8.058;2023-11-21T03:02:16;4.53;;;1.30;;
13891;SDS011;7016;48.172;8.058;2023-11-21T03:04:42;3.70;;;1.40;;
13891;SDS011;7016;48.172;8.058;2023-11-21T03:07:08;6.18;;;1.40;;
13891;SDS011;7016;48.172;8.058;2023-11-21T03:09:34;4.65;;;1.50;;
13891;SDS011;7016;48.172;8.058;2023-11-21T03:12:00;7.20;;;1.88;;
13891;SDS011;7016;48.172;8.058;2023-11-21T03:14:26;5.28;;;1.35;;
13891;SDS011;7016;48.172;8.058;2023-11-21T03:16:52;3.88;;;1.05;;
13891;SDS011;7016;48.172;8.058;2023-11-21T03:19:17;4.40;;;1.05;;
13891;SDS011;7016;48.172;8.058;2023-11-21T03:21:43;5.47;;;1.30;;
13891;SDS011;7016;48.172;8.058;2023-11-21T03:24:09;4.00;;;1.20;;
13891;SDS011;7016;48.172;8.058;2023-11-21T03:26:34;4.05;;;1.27;;
13891;SDS011;7016;48.172;8.058;2023-11-21T03:29:00;4.53;;;0.90;;
13891;SDS011;7016;48.172;8.058;2023-11-21T03:31:26;5.65;;;0.90;;
13891;SDS011;7016;48.172;8.058;2023-11-21T03:33:51;5.28;;;1.15;;
13891;SDS011;7016;48.172;8.058;2023-11-21T03:36:19;5.70;;;1.65;;
13891;SDS011;7016;48.172;8.058;2023-11-21T03:38:45;6.47;;;1.80;;
13891;SDS011;7016;48.172;8.058;2023-11-21T03:41:10;4.40;;;1.30;;
13891;SDS011;7016;48.172;8.058;2023-11-21T03:43:36;3.97;;;1.48;;
13891;SDS011;7016;48.172;8.058;2023-11-21T03:46:02;3.10;;;0.82;;
13891;SDS011;7016;48.172;8.058;2023-11-21T03:48:28;5.53;;;1.58;;
13891;SDS011;7016;48.172;8.058;2023-11-21T03:50:54;6.70;;;1.25;;
13891;SDS011;7016;48.172;8.058;2023-11-21T03:53:20;6.65;;;1.52;;
13891;SDS011;7016;48.172;8.058;2023-11-21T03:55:46;3.88;;;1.40;;
13891;SDS011;7016;48.172;8.058;2023-11-21T03:58:11;10.45;;;1.75;;
13891;SDS011;7016;48.172;8.058;2023-11-21T04:00:37;4.43;;;1.70;;
13891;SDS011;7016;48.172;8.058;2023-11-21T04:03:03;6.28;;;1.80;;
13891;SDS011;7016;48.172;8.058;2023-11-21T04:05:29;4.82;;;1.20;;
13891;SDS011;7016;48.172;8.058;2023-11-21T04:07:56;4.25;;;1.50;;
13891;SDS011;7016;48.172;8.058;2023-11-21T04:10:21;13.60;;;1.23;;
13891;SDS011;7016;48.172;8.058;2023-11-21T04:12:47;3.90;;;1.02;;
13891;SDS011;7016;48.172;8.058;2023-11-21T04:15:13;4.18;;;1.17;;
13891;SDS011;7016;48.172;8.058;2023-11-21T04:17:40;3.85;;;1.02;;
13891;SDS011;7016;48.172;8.058;2023-11-21T04:20:07;4.30;;;1.20;;
13891;SDS011;7016;48.172;8.058;2023-11-21T04:22:39;4.70;;;0.93;;
13891;SDS011;7016;48.172;8.058;2023-11-21T04:25:07;2.58;;;1.00;;
13891;SDS011;7016;48.172;8.058;2023-11-21T04:27:34;7.00;;;1.55;;
13891;SDS011;7016;48.172;8.058;2023-11-21T04:30:00;9.30;;;1.65;;
13891;SDS011;7016;48.172;8.058;2023-11-21T04:32:25;3.83;;;1.45;;
13891;SDS011;7016;48.172;8.058;2023-11-21T04:34:51;8.73;;;1.80;;
13891;SDS011;7016;48.172;8.058;2023-11-21T04:37:17;5.13;;;1.30;;
13891;SDS011;7016;48.172;8.058;2023-11-21T04:39:42;6.00;;;1.33;;
13891;SDS011;7016;48.172;8.058;2023-11-21T04:42:08;7.15;;;1.65;;
13891;SDS011;7016;48.172;8.058;2023-11-21T04:44:34;4.05;;;1.48;;
13891;SDS011;7016;48.172;8.058;2023-11-21T04:46:59;4.47;;;1.50;;
13891;SDS011;7016;48.172;8.058;2023-11-21T04:49:25;4.20;;;1.70;;
13891;SDS011;7016;48.172;8.058;2023-11-21T04:51:51;5.45;;;1.55;;
13891;SDS011;7016;48.172;8.058;2023-11-21T04:54:17;7.30;;;1.50;;
13891;SDS011;7016;48.172;8.058;2023-11-21T04:56:42;4.85;;;1.30;;
13891;SDS011;7016;48.172;8.058;2023-11-21T04:59:08;8.55;;;1.50;;
13891;SDS011;7016;48.172;8.058;2023-11-21T05:01:34;7.50;;;2.72;;
13891;SDS011;7016;48.172;8.058;2023-11-21T05:04:01;5.47;;;2.22;;
13891;SDS011;7016;48.172;8.058;2023-11-21T05:06:27;10.93;;;2.83;;
13891;SDS011;7016;48.172;8.058;2023-11-21T05:08:55;10.82;;;3.65;;
13891;SDS011;7016;48.172;8.058;2023-11-21T05:11:24;10.52;;;2.25;;
13891;SDS011;7016;48.172;8.058;2023-11-21T05:13:51;5.72;;;2.10;;
13891;SDS011;7016;48.172;8.058;2023-11-21T05:16:16;4.75;;;1.45;;
13891;SDS011;7016;48.172;8.058;2023-11-21T05:18:42;6.57;;;1.52;;
13891;SDS011;7016;48.172;8.058;2023-11-21T05:21:08;8.73;;;1.52;;
13891;SDS011;7016;48.172;8.058;2023-11-21T05:23:35;3.65;;;1.23;;
13891;SDS011;7016;48.172;8.058;2023-11-21T05:26:01;5.60;;;1.50;;
13891;SDS011;7016;48.172;8.058;2023-11-21T05:28:27;5.82;;;1.55;;
13891;SDS011;7016;48.172;8.058;2023-11-21T05:30:53;4.43;;;1.25;;
13891;SDS011;7016;48.172;8.058;2023-11-21T05:33:19;3.70;;;1.45;;
13891;SDS011;7016;48.172;8.058;2023-11-21T05:35:44;3.40;;;1.50;;
13891;SDS011;7016;48.172;8.058;2023-11-21T05:38:10;5.13;;;1.40;;
13891;SDS011;7016;48.172;8.058;2023-11-21T05:40:36;3.28;;;1.40;;
13891;SDS011;7016;48.172;8.058;2023-11-21T05:43:02;3.17;;;1.40;;
13891;SDS011;7016;48.172;8.058;2023-11-21T05:45:30;2.22;;;1.10;;
13891;SDS011;7016;48.172;8.058;2023-11-21T05:47:57;2.92;;;0.98;;
13891;SDS011;7016;48.172;8.058;2023-11-21T05:50:23;2.05;;;1.08;;
13891;SDS011;7016;48.172;8.058;2023-11-21T05:52:49;2.70;;;1.20;;
13891;SDS011;7016;48.172;8.058;2023-11-21T05:55:14;3.55;;;1.50;;
13891;SDS011;7016;48.172;8.058;2023-11-21T05:57:41;5.03;;;2.88;;
13891;SDS011;7016;48.172;8.058;2023-11-21T06:00:12;3.78;;;2.17;;
13891;SDS011;7016;48.172;8.058;2023-11-21T06:02:50;4.35;;;2.50;;
13891;SDS011;7016;48.172;8.058;2023-11-21T06:05:18;13.70;;;5.80;;
13891;SDS011;7016;48.172;8.058;2023-11-21T06:07:45;15.73;;;7.07;;
13891;SDS011;7016;48.172;8.058;2023-11-21T06:10:11;4.20;;;1.77;;
13891;SDS011;7016;48.172;8.058;2023-11-21T06:12:42;5.07;;;2.30;;
13891;SDS011;7016;48.172;8.058;2023-11-21T06:15:09;5.15;;;2.40;;
13891;SDS011;7016;48.172;8.058;2023-11-21T06:17:38;2.92;;;1.67;;
13891;SDS011;7016;48.172;8.058;2023-11-21T06:20:13;10.63;;;3.15;;
13891;SDS011;7016;48.172;8.058;2023-11-21T06:22:40;11.15;;;4.55;;
13891;SDS011;7016;48.172;8.058;2023-11-21T06:25:07;6.35;;;2.72;;
13891;SDS011;7016;48.172;8.058;2023-11-21T06:27:34;12.35;;;4.13;;
13891;SDS011;7016;48.172;8.058;2023-11-21T06:30:05;8.30;;;3.20;;
13891;SDS011;7016;48.172;8.058;2023-11-21T06:32:31;5.47;;;2.50;;
13891;SDS011;7016;48.172;8.058;2023-11-21T06:34:57;5.75;;;2.90;;
13891;SDS011;7016;48.172;8.058;2023-11-21T06:37:26;5.88;;;3.22;;
13891;SDS011;7016;48.172;8.058;2023-11-21T06:39:52;6.40;;;2.90;;
13891;SDS011;7016;48.172;8.058;2023-11-21T06:42:19;8.68;;;3.13;;
13891;SDS011;7016;48.172;8.058;2023-11-21T06:44:45;8.65;;;3.40;;
13891;SDS011;7016;48.172;8.058;2023-11-21T06:47:12;8.10;;;3.13;;
13891;SDS011;7016;48.172;8.058;2023-11-21T06:49:37;5.25;;;3.08;;
13891;SDS011;7016;48.172;8.058;2023-11-21T06:52:03;8.43;;;3.95;;
13891;SDS011;7016;48.172;8.058;2023-11-21T06:54:30;5.70;;;2.65;;
13891;SDS011;7016;48.172;8.058;2023-11-21T06:56:56;5.78;;;2.95;;
13891;SDS011;7016;48.172;8.058;2023-11-21T06:59:23;6.03;;;3.10;;
13891;SDS011;7016;48.172;8.058;2023-11-21T07:01:49;5.53;;;2.70;;
13891;SDS011;7016;48.172;8.058;2023-11-21T07:04:15;5.32;;;2.70;;
13891;SDS011;7016;48.172;8.058;2023-11-21T07:06:40;6.75;;;3.35;;
13891;SDS011;7016;48.172;8.058;2023-11-21T07:09:06;4.65;;;2.83;;
13891;SDS011;7016;48.172;8.058;2023-11-21T07:11:33;6.35;;;3.58;;
13891;SDS011;7016;48.172;8.058;2023-11-21T07:14:03;8.45;;;3.25;;
13891;SDS011;7016;48.172;8.058;2023-11-21T07:16:35;7.20;;;3.38;;
13891;SDS011;7016;48.172;8.058;2023-11-21T07:19:04;5.97;;;3.42;;
13891;SDS011;7016;48.172;8.058;2023-11-21T07:21:33;9.02;;;3.90;;
13891;SDS011;7016;48.172;8.058;2023-11-21T07:24:00;7.32;;;3.45;;
13891;SDS011;7016;48.172;8.058;2023-11-21T07:26:27;8.77;;;4.20;;
13891;SDS011;7016;48.172;8.058;2023-11-21T07:28:53;4.25;;;3.13;;
13891;SDS011;7016;48.172;8.058;2023-11-21T07:31:19;6.72;;;4.00;;
13891;SDS011;7016;48.172;8.058;2023-11-21T07:33:48;6.05;;;4.05;;
13891;SDS011;7016;48.172;8.058;2023-11-21T07:36:17;6.40;;;3.55;;
13891;SDS011;7016;48.172;8.058;2023-11-21T07:38:46;6.28;;;3.30;;
13891;SDS011;7016;48.172;8.058;2023-11-21T07:41:13;6.03;;;3.35;;
13891;SDS011;7016;48.172;8.058;2023-11-21T07:43:42;7.30;;;3.67;;
13891;SDS011;7016;48.172;8.058;2023-11-21T07:46:09;4.65;;;3.35;;
13891;SDS011;7016;48.172;8.058;2023-11-21T07:48:37;6.75;;;3.60;;
13891;SDS011;7016;48.172;8.058;2023-11-21T07:51:07;6.40;;;3.90;;
13891;SDS011;7016;48.172;8.058;2023-11-21T07:53:33;6.93;;;3.65;;
13891;SDS011;7016;48.172;8.058;2023-11-21T07:56:03;11.05;;;4.30;;
13891;SDS011;7016;48.172;8.058;2023-11-21T07:58:30;11.68;;;4.95;;
13891;SDS011;7016;48.172;8.058;2023-11-21T08:00:56;9.60;;;4.57;;
13891;SDS011;7016;48.172;8.058;2023-11-21T08:03:22;8.80;;;4.68;;
13891;SDS011;7016;48.172;8.058;2023-11-21T08:05:47;10.75;;;4.93;;
13891;SDS011;7016;48.172;8.058;2023-11-21T08:08:13;6.70;;;4.57;;
13891;SDS011;7016;48.172;8.058;2023-11-21T08:10:39;6.53;;;3.95;;
13891;SDS011;7016;48.172;8.058;2023-11-21T08:13:05;10.68;;;4.43;;
13891;SDS011;7016;48.172;8.058;2023-11-21T08:15:33;7.38;;;4.32;;
13891;SDS011;7016;48.172;8.058;2023-11-21T08:17:58;13.52;;;5.88;;
13891;SDS011;7016;48.172;8.058;2023-11-21T08:20:24;20.73;;;8.00;;
13891;SDS011;7016;48.172;8.058;2023-11-21T08:22:50;27.98;;;8.73;;
13891;SDS011;7016;48.172;8.058;2023-11-21T08:25:17;19.20;;;6.57;;
13891;SDS011;7016;48.172;8.058;2023-11-21T08:27:45;12.70;;;5.25;;
13891;SDS011;7016;48.172;8.058;2023-11-21T08:30:11;11.68;;;5.00;;
13891;SDS011;7016;48.172;8.058;2023-11-21T08:32:39;20.08;;;7.30;;
13891;SDS011;7016;48.172;8.058;2023-11-21T08:35:06;19.63;;;6.93;;
13891;SDS011;7016;48.172;8.058;2023-11-21T08:37:32;14.30;;;5.57;;
13891;SDS011;7016;48.172;8.058;2023-11-21T08:40:02;12.10;;;4.63;;
13891;SDS011;7016;48.172;8.058;2023-11-21T08:42:41;6.78;;;3.38;;
13891;SDS011;7016;48.172;8.058;2023-11-21T08:45:08;9.43;;;3.20;;
13891;SDS011;7016;48.172;8.058;2023-11-21T08:47:34;7.60;;;3.70;;
13891;SDS011;7016;48.172;8.058;2023-11-21T08:50:01;11.07;;;4.47;;
13891;SDS011;7016;48.172;8.058;2023-11-21T08:52:32;10.18;;;4.22;;
13891;SDS011;7016;48.172;8.058;2023-11-21T08:54:59;5.82;;;2.90;;
13891;SDS011;7016;48.172;8.058;2023-11-21T08:57:27;10.52;;;5.05;;
13891;SDS011;7016;48.172;8.058;2023-11-21T08:59:53;6.35;;;3.50;;
13891;SDS011;7016;48.172;8.058;2023-11-21T09:02:25;4.75;;;3.03;;
13891;SDS011;7016;48.172;8.058;2023-11-21T09:04:51;7.38;;;4.13;;
13891;SDS011;7016;48.172;8.058;2023-11-21T09:07:20;8.05;;;3.20;;
13891;SDS011;7016;48.172;8.058;2023-11-21T09:09:46;7.55;;;3.00;;
13891;SDS011;7016;48.172;8.058;2023-11-21T09:12:14;8.00;;;2.75;;
13891;SDS011;7016;48.172;8.058;2023-11-21T09:14:39;8.55;;;3.30;;
13891;SDS011;7016;48.172;8.058;2023-11-21T09:17:05;5.65;;;3.10;;
13891;SDS011;7016;48.172;8.058;2023-11-21T09:19:39;9.30;;;3.40;;
13891;SDS011;7016;48.172;8.058;2023-11-21T09:22:10;6.22;;;3.20;;
13891;SDS011;7016;48.172;8.058;2023-11-21T09:24:36;7.60;;;2.72;;
13891;SDS011;7016;48.172;8.058;2023-11-21T09:27:02;5.93;;;2.30;;
13891;SDS011;7016;48.172;8.058;2023-11-21T09:29:30;3.35;;;2.22;;
13891;SDS011;7016;48.172;8.058;2023-11-21T09:31:57;6.68;;;2.60;;
13891;SDS011;7016;48.172;8.058;2023-11-21T09:34:24;5.32;;;2.65;;
13891;SDS011;7016;48.172;8.058;2023-11-21T09:36:50;3.50;;;2.65;;
13891;SDS011;7016;48.172;8.058;2023-11-21T09:39:16;9.25;;;4.07;;
13891;SDS011;7016;48.172;8.058;2023-11-21T09:41:52;14.43;;;5.15;;
13891;SDS011;7016;48.172;8.058;2023-11-21T09:44:27;13.52;;;5.72;;
13891;SDS011;7016;48.172;8.058;2023-11-21T09:47:21;11.40;;;4.07;;
13891;SDS011;7016;48.172;8.058;2023-11-21T09:49:48;10.50;;;3.70;;
13891;SDS011;7016;48.172;8.058;2023-11-21T09:52:26;22.88;;;6.13;;
13891;SDS011;7016;48.172;8.058;2023-11-21T09:54:53;13.10;;;3.63;;
13891;SDS011;7016;48.172;8.058;2023-11-21T09:57:22;4.25;;;2.70;;
13891;SDS011;7016;48.172;8.058;2023-11-21T09:59:52;6.28;;;3.17;;
13891;SDS011;7016;48.172;8.058;2023-11-21T10:02:27;8.57;;;3.53;;
13891;SDS011;7016;48.172;8.058;2023-11-21T10:04:58;15.75;;;5.05;;
13891;SDS011;7016;48.172;8.058;2023-11-21T10:07:25;13.13;;;4.65;;
13891;SDS011;7016;48.172;8.058;2023-11-21T10:09:53;8.35;;;3.22;;
13891;SDS011;7016;48.172;8.058;2023-11-21T10:12:20;11.75;;;3.10;;
13891;SDS011;7016;48.172;8.058;2023-11-21T10:14:48;11.23;;;3.17;;
13891;SDS011;7016;48.172;8.058;2023-11-21T10:17:17;9.00;;;3.88;;
13891;SDS011;7016;48.172;8.058;2023-11-21T10:19:46;8.13;;;3.20;;
13891;SDS011;7016;48.172;8.058;2023-11-21T10:22:12;9.93;;;2.50;;
13891;SDS011;7016;48.172;8.058;2023-11-21T10:24:42;7.65;;;3.33;;
13891;SDS011;7016;48.172;8.058;2023-11-21T10:27:08;10.50;;;3.40;;
13891;SDS011;7016;48.172;8.058;2023-11-21T10:29:34;9.15;;;2.83;;
13891;SDS011;7016;48.172;8.058;2023-11-21T10:32:03;6.03;;;3.15;;
13891;SDS011;7016;48.172;8.058;2023-11-21T10:34:30;12.40;;;4.25;;
13891;SDS011;7016;48.172;8.058;2023-11-21T10:36:56;5.05;;;2.67;;
13891;SDS011;7016;48.172;8.058;2023-11-21T10:39:23;9.07;;;2.92;;
13891;SDS011;7016;48.172;8.058;2023-11-21T10:41:55;5.65;;;2.47;;
13891;SDS011;7016;48.172;8.058;2023-11-21T10:44:21;8.18;;;4.70;;
13891;SDS011;7016;48.172;8.058;2023-11-21T10:46:49;7.05;;;3.47;;
13891;SDS011;7016;48.172;8.058;2023-11-21T10:49:20;7.10;;;2.92;;
13891;SDS011;7016;48.172;8.058;2023-11-21T10:51:46;5.57;;;2.50;;
13891;SDS011;7016;48.172;8.058;2023-11-21T10:54:17;4.72;;;2.47;;
13891;SDS011;7016;48.172;8.058;2023-11-21T10:56:52;6.17;;;2.80;;
13891;SDS011;7016;48.172;8.058;2023-11-21T10:59:22;7.47;;;3.33;;
13891;SDS011;7016;48.172;8.058;2023-11-21T11:01:50;6.97;;;3.00;;
13891;SDS011;7016;48.172;8.058;2023-11-21T11:04:20;8.25;;;3.58;;
13891;SDS011;7016;48.172;8.058;2023-11-21T11:06:51;5.18;;;3.38;;
13891;SDS011;7016;48.172;8.058;2023-11-21T11:09:19;7.53;;;4.35;;
13891;SDS011;7016;48.172;8.058;2023-11-21T11:11:45;6.93;;;4.22;;
13891;SDS011;7016;48.172;8.058;2023-11-21T11:14:11;11.38;;;4.05;;
13891;SDS011;7016;48.172;8.058;2023-11-21T11:16:38;3.40;;;2.30;;
13891;SDS011;7016;48.172;8.058;2023-11-21T11:19:06;4.55;;;2.85;;
13891;SDS011;7016;48.172;8.058;2023-11-21T11:35:01;3.75;;;1.90;;
13891;SDS011;7016;48.172;8.058;2023-11-21T11:37:32;3.63;;;1.80;;
13891;SDS011;7016;48.172;8.058;2023-11-21T11:39:58;2.50;;;1.55;;
13891;SDS011;7016;48.172;8.058;2023-11-21T11:42:25;2.38;;;1.88;;
13891;SDS011;7016;48.172;8.058;2023-11-21T11:44:52;2.28;;;1.30;;
13891;SDS011;7016;48.172;8.058;2023-11-21T11:47:20;3.22;;;1.48;;
13891;SDS011;7016;48.172;8.058;2023-11-21T11:50:05;5.20;;;1.50;;
13891;SDS011;7016;48.172;8.058;2023-11-21T11:52:39;2.13;;;1.25;;
13891;SDS011;7016;48.172;8.058;2023-11-21T11:55:09;2.08;;;1.30;;
13891;SDS011;7016;48.172;8.058;2023-11-21T11:57:37;1.73;;;1.10;;
13891;SDS011;7016;48.172;8.058;2023-11-21T12:02:40;2.78;;;1.80;;
13891;SDS011;7016;48.172;8.058;2023-11-21T12:05:09;3.10;;;0.90;;
13891;SDS011;7016;48.172;8.058;2023-11-21T12:07:48;2.25;;;1.30;;
13891;SDS011;7016;48.172;8.058;2023-11-21T12:10:19;2.95;;;1.08;;
13891;SDS011;7016;48.172;8.058;2023-11-21T12:12:51;1.13;;;0.90;;
13891;SDS011;7016;48.172;8.058;2023-11-21T12:15:18;3.70;;;1.08;;
13891;SDS011;7016;48.172;8.058;2023-11-21T12:17:46;1.20;;;1.00;;
13891;SDS011;7016;48.172;8.058;2023-11-21T12:20:12;2.72;;;1.00;;
13891;SDS011;7016;48.172;8.058;2023-11-21T12:22:46;1.38;;;1.20;;
13891;SDS011;7016;48.172;8.058;2023-11-21T12:25:16;1.45;;;1.27;;
13891;SDS011;7016;48.172;8.058;2023-11-21T12:27:46;1.88;;;1.50;;
13891;SDS011;7016;48.172;8.058;2023-11-21T12:30:15;1.60;;;1.50;;
13891;SDS011;7016;48.172;8.058;2023-11-21T12:32:47;3.05;;;1.70;;
13891;SDS011;7016;48.172;8.058;2023-11-21T12:35:17;2.38;;;1.50;;
13891;SDS011;7016;48.172;8.058;2023-11-21T12:37:47;1.55;;;1.00;;
13891;SDS011;7016;48.172;8.058;2023-11-21T12:40:14;1.73;;;1.45;;
13891;SDS011;7016;48.172;8.058;2023-11-21T12:42:41;2.53;;;1.48;;
13891;SDS011;7016;48.172;8.058;2023-11-21T12:47:46;1.45;;;1.10;;
13891;SDS011;7016;48.172;8.058;2023-11-21T12:50:19;4.63;;;1.42;;
13891;SDS011;7016;48.172;8.058;2023-11-21T12:52:49;2.75;;;1.40;;
13891;SDS011;7016;48.172;8.058;2023-11-21T12:55:17;1.65;;;1.05;;
13891;SDS011;7016;48.172;8.058;2023-11-21T12:57:47;2.13;;;1.10;;
13891;SDS011;7016;48.172;8.058;2023-11-21T13:00:16;1.20;;;1.00;;
13891;SDS011;7016;48.172;8.058;2023-11-21T13:02:56;1.52;;;0.80;;
13891;SDS011;7016;48.172;8.058;2023-11-21T13:05:27;2.70;;;0.95;;
13891;SDS011;7016;48.172;8.058;2023-11-21T13:08:00;1.67;;;1.20;;
13891;SDS011;7016;48.172;8.058;2023-11-21T13:10:33;3.33;;;1.30;;
13891;SDS011;7016;48.172;8.058;2023-11-21T13:13:05;2.03;;;1.45;;
13891;SDS011;7016;48.172;8.058;2023-11-21T13:15:33;2.10;;;1.20;;
13891;SDS011;7016;48.172;8.058;2023-11-21T13:18:01;3.22;;;1.60;;
13891;SDS011;7016;48.172;8.058;2023-11-21T13:20:28;2.03;;;1.08;;
13891;SDS011;7016;48.172;8.058;2023-11-21T13:22:57;2.63;;;1.23;;
13891;SDS011;7016;48.172;8.058;2023-11-21T13:25:27;1.90;;;1.15;;
13891;SDS011;7016;48.172;8.058;2023-11-21T13:27:57;1.30;;;1.20;;
13891;SDS011;7016;48.172;8.058;2023-11-21T13:30:27;2.75;;;1.50;;
13891;SDS011;7016;48.172;8.058;2023-11-21T13:32:59;1.75;;;1.20;;
13891;SDS011;7016;48.172;8.058;2023-11-21T13:35:31;2.63;;;1.50;;
13891;SDS011;7016;48.172;8.058;2023-11-21T13:38:07;3.22;;;2.40;;
13891;SDS011;7016;48.172;8.058;2023-11-21T13:40:34;3.55;;;2.40;;
13891;SDS011;7016;48.172;8.058;2023-11-21T13:43:22;1.20;;;0.93;;
13891;SDS011;7016;48.172;8.058;2023-11-21T13:45:50;0.93;;;0.75;;
13891;SDS011;7016;48.172;8.058;2023-11-21T13:48:26;0.80;;;0.60;;
13891;SDS011;7016;48.172;8.058;2023-11-21T13:51:05;0.52;;;0.52;;
13891;SDS011;7016;48.172;8.058;2023-11-21T13:53:45;0.98;;;0.60;;
13891;SDS011;7016;48.172;8.058;2023-11-21T13:56:14;0.90;;;0.70;;
13891;SDS011;7016;48.172;8.058;2023-11-21T13:58:52;0.85;;;0.60;;
13891;SDS011;7016;48.172;8.058;2023-11-21T14:01:35;1.27;;;0.60;;
13891;SDS011;7016;48.172;8.058;2023-11-21T14:04:07;1.05;;;0.70;;
13891;SDS011;7016;48.172;8.058;2023-11-21T14:06:42;2.30;;;0.60;;
13891;SDS011;7016;48.172;8.058;2023-11-21T14:09:18;6.10;;;2.40;;
13891;SDS011;7016;48.172;8.058;2023-11-21T14:11:50;6.55;;;3.25;;
13891;SDS011;7016;48.172;8.058;2023-11-21T14:14:17;2.13;;;1.50;;
13891;SDS011;7016;48.172;8.058;2023-11-21T14:16:44;1.23;;;0.90;;
13891;SDS011;7016;48.172;8.058;2023-11-21T14:19:10;2.58;;;0.75;;
13891;SDS011;7016;48.172;8.058;2023-11-21T14:21:45;1.02;;;0.93;;
13891;SDS011;7016;48.172;8.058;2023-11-21T14:24:13;1.10;;;1.00;;
13891;SDS011;7016;48.172;8.058;2023-11-21T14:26:43;4.80;;;1.58;;
13891;SDS011;7016;48.172;8.058;2023-11-21T14:29:13;12.23;;;7.28;;
13891;SDS011;7016;48.172;8.058;2023-11-21T14:31:42;10.95;;;6.32;;
13891;SDS011;7016;48.172;8.058;2023-11-21T14:34:08;3.63;;;2.70;;
13891;SDS011;7016;48.172;8.058;2023-11-21T14:36:35;3.13;;;2.10;;
13891;SDS011;7016;48.172;8.058;2023-11-21T14:39:05;1.88;;;1.70;;
13891;SDS011;7016;48.172;8.058;2023-11-21T14:41:57;2.60;;;2.22;;
13891;SDS011;7016;48.172;8.058;2023-11-21T14:44:24;1.40;;;1.20;;
13891;SDS011;7016;48.172;8.058;2023-11-21T14:46:51;1.23;;;0.98;;
13891;SDS011;7016;48.172;8.058;2023-11-21T14:49:19;2.42;;;1.67;;
13891;SDS011;7016;48.172;8.058;2023-11-21T14:51:52;3.35;;;1.77;;
13891;SDS011;7016;48.172;8.058;2023-11-21T14:54:29;5.05;;;1.88;;
13891;SDS011;7016;48.172;8.058;2023-11-21T14:57:05;3.83;;;2.40;;
13891;SDS011;7016;48.172;8.058;2023-11-21T14:59:37;7.38;;;4.10;;
13891;SDS011;7016;48.172;8.058;2023-11-21T15:02:08;11.40;;;4.85;;
13891;SDS011;7016;48.172;8.058;2023-11-21T15:04:41;5.25;;;3.45;;
13891;SDS011;7016;48.172;8.058;2023-11-21T15:07:07;11.70;;;5.45;;
13891;SDS011;7016;48.172;8.058;2023-11-21T15:09:33;5.30;;;2.90;;
13891;SDS011;7016;48.172;8.058;2023-11-21T15:12:00;5.30;;;3.05;;
13891;SDS011;7016;48.172;8.058;2023-11-21T15:14:39;4.78;;;2.20;;
13891;SDS011;7016;48.172;8.058;2023-11-21T15:17:19;3.10;;;1.90;;
13891;SDS011;7016;48.172;8.058;2023-11-21T15:19:49;3.85;;;1.52;;
13891;SDS011;7016;48.172;8.058;2023-11-21T15:22:15;3.20;;;1.70;;
13891;SDS011;7016;48.172;8.058;2023-11-21T15:24:41;1.60;;;1.20;;